Time;durP1;ratioP1;P1;durP2;ratioP2;P2;SDS_P1;SDS_P2;PMS_P1;PMS_P2;Temp;Humidity;BMP_temperature;BMP_pressure;BME280_temperature;BME280_humidity;BME280_pressure;Samples;Min_cycle;Max_cycle;Signal;HPM_P1;HPM_P2
2022/11/15 00:02:23;;;;;;;11.47;10.27;;;10.30;99.90;;;;;;5059160;28;21016;-83
2022/11/15 00:04:49;;;;;;;14.57;11.37;;;10.20;99.90;;;;;;5061092;28;20444;-84
2022/11/15 00:07:16;;;;;;;13.47;11.20;;;10.20;99.90;;;;;;5064060;28;20828;-84
2022/11/15 00:09:43;;;;;;;16.07;11.20;;;10.20;99.90;;;;;;5056581;28;20547;-85
2022/11/15 00:12:10;;;;;;;14.03;11.70;;;10.20;99.90;;;;;;5055979;28;20444;-85
2022/11/15 00:14:36;;;;;;;15.37;12.50;;;10.20;99.90;;;;;;5058410;28;20447;-85
2022/11/15 00:17:04;;;;;;;13.97;12.20;;;10.20;99.90;;;;;;5073213;28;20500;-85
2022/11/15 00:19:31;;;;;;;15.20;11.57;;;10.30;99.90;;;;;;5062341;28;20436;-85
2022/11/15 00:21:58;;;;;;;18.63;12.60;;;10.20;99.90;;;;;;5057551;28;20491;-85
2022/11/15 00:24:24;;;;;;;14.50;13.00;;;10.20;99.90;;;;;;5056935;28;20819;-85
2022/11/15 00:26:51;;;;;;;11.30;9.83;;;10.20;99.90;;;;;;5056247;28;20449;-85
2022/11/15 00:29:18;;;;;;;16.73;10.70;;;10.20;99.90;;;;;;5056330;28;20441;-85
2022/11/15 00:32:22;;;;;;;16.17;11.57;;;10.20;99.90;;;;;;5072202;28;20491;-84
2022/11/15 00:34:50;;;;;;;16.87;12.07;;;10.20;99.90;;;;;;5078296;28;20432;-85
2022/11/15 00:37:16;;;;;;;11.43;10.33;;;10.10;99.90;;;;;;5077957;28;20433;-85
2022/11/15 00:39:43;;;;;;;16.40;11.10;;;10.10;99.90;;;;;;5073177;28;20565;-86
2022/11/15 00:42:10;;;;;;;16.67;11.53;;;10.10;99.90;;;;;;5062418;28;20484;-86
2022/11/15 00:44:36;;;;;;;16.73;11.90;;;10.10;99.90;;;;;;5062401;28;20452;-85
2022/11/15 00:47:03;;;;;;;13.00;10.80;;;10.10;99.90;;;;;;5059707;28;20445;-85
2022/11/15 00:49:30;;;;;;;15.73;12.00;;;10.00;99.90;;;;;;5061463;28;20444;-85
2022/11/15 00:51:58;;;;;;;19.13;12.13;;;10.00;99.90;;;;;;5061130;28;20591;-85
2022/11/15 00:54:25;;;;;;;12.37;10.77;;;10.00;99.90;;;;;;5067337;28;20449;-84
2022/11/15 00:56:51;;;;;;;13.43;12.00;;;10.00;99.90;;;;;;5068133;28;20440;-85
2022/11/15 00:59:18;;;;;;;17.80;13.40;;;10.00;99.90;;;;;;5064271;28;20453;-85
2022/11/15 01:01:51;;;;;;;18.47;13.47;;;10.00;99.90;;;;;;5069952;28;20484;-84
2022/11/15 01:04:18;;;;;;;18.27;12.90;;;9.90;99.90;;;;;;5081303;28;20428;-84
2022/11/15 01:06:44;;;;;;;16.00;12.73;;;9.90;99.90;;;;;;5076175;28;20451;-85
2022/11/15 01:09:13;;;;;;;17.60;12.53;;;9.90;99.90;;;;;;5063005;28;20459;-85
2022/11/15 01:11:40;;;;;;;14.40;12.40;;;9.80;99.90;;;;;;5063580;28;20476;-84
2022/11/15 01:14:07;;;;;;;13.67;12.27;;;9.80;99.90;;;;;;5063017;28;20460;-85
2022/11/15 01:16:34;;;;;;;16.80;11.67;;;9.80;99.90;;;;;;5072813;28;20441;-84
2022/11/15 01:19:01;;;;;;;15.13;12.53;;;9.80;99.90;;;;;;5080874;28;20435;-85
2022/11/15 01:21:28;;;;;;;13.90;12.40;;;9.70;99.90;;;;;;5079438;28;20465;-85
2022/11/15 01:23:55;;;;;;;16.40;13.30;;;9.70;99.90;;;;;;5071432;28;20459;-85
2022/11/15 01:26:24;;;;;;;14.10;12.60;;;9.60;99.90;;;;;;5067441;28;20457;-85
2022/11/15 01:28:51;;;;;;;16.97;13.47;;;9.60;99.90;;;;;;5059596;28;20456;-85
2022/11/15 01:31:20;;;;;;;21.03;14.63;;;9.50;99.90;;;;;;5059307;28;20480;-85
2022/11/15 01:33:48;;;;;;;17.17;13.80;;;9.40;99.90;;;;;;5058958;28;20444;-84
2022/11/15 01:36:17;;;;;;;18.57;14.00;;;9.30;99.90;;;;;;5059970;28;20455;-84
2022/11/15 01:38:44;;;;;;;19.30;14.10;;;9.20;99.90;;;;;;5059610;28;20448;-84
2022/11/15 01:41:17;;;;;;;17.33;14.80;;;9.20;99.90;;;;;;5059556;28;20476;-83
2022/11/15 01:43:47;;;;;;;16.53;12.80;;;9.10;99.90;;;;;;5071333;28;20488;-84
2022/11/15 01:46:33;;;;;;;16.40;13.37;;;9.20;99.90;;;;;;5065011;28;20447;-85
2022/11/15 01:49:04;;;;;;;21.80;14.70;;;9.10;99.90;;;;;;5069289;28;20964;-84
2022/11/15 01:51:33;;;;;;;18.40;14.53;;;9.10;99.90;;;;;;5058446;28;20475;-84
2022/11/15 01:54:04;;;;;;;17.73;13.97;;;8.90;99.90;;;;;;5058684;28;20453;-84
2022/11/15 01:56:34;;;;;;;21.33;13.60;;;8.90;99.90;;;;;;5059839;28;20980;-84
2022/11/15 01:59:05;;;;;;;15.73;13.20;;;8.80;99.90;;;;;;5069140;28;20421;-84
2022/11/15 02:01:33;;;;;;;17.80;13.70;;;8.70;99.90;;;;;;5081015;28;20451;-83
2022/11/15 02:04:04;;;;;;;14.70;13.10;;;8.70;99.90;;;;;;5074805;28;20528;-84
2022/11/15 02:06:31;;;;;;;17.67;13.60;;;8.60;99.90;;;;;;5058499;28;20447;-83
2022/11/15 02:08:59;;;;;;;20.33;14.70;;;8.70;99.90;;;;;;5058532;28;20451;-85
2022/11/15 02:11:26;;;;;;;16.10;12.53;;;8.70;99.90;;;;;;5057909;28;20476;-83
2022/11/15 02:13:54;;;;;;;14.47;12.67;;;8.80;99.90;;;;;;5059730;28;20441;-84
2022/11/15 02:16:29;;;;;;;18.57;13.57;;;8.80;99.90;;;;;;5050588;28;20942;-84
2022/11/15 02:19:01;;;;;;;23.80;14.23;;;8.80;99.90;;;;;;5059786;28;20440;-84
2022/11/15 02:21:36;;;;;;;16.03;12.67;;;8.90;99.90;;;;;;5061600;28;20480;-84
2022/11/15 02:24:35;;;;;;;17.93;13.27;;;9.00;99.90;;;;;;5049083;28;20945;-84
2022/11/15 02:27:38;;;;;;;16.67;14.57;;;8.90;99.90;;;;;;5059393;28;20442;-83
2022/11/15 02:30:17;;;;;;;21.20;14.20;;;9.00;99.90;;;;;;5060944;28;20479;-85
2022/11/15 02:32:49;;;;;;;18.50;14.70;;;8.90;99.90;;;;;;5054910;28;20441;-85
2022/11/15 02:35:24;;;;;;;16.90;12.83;;;9.00;99.90;;;;;;5058127;28;20445;-85
2022/11/15 02:37:56;;;;;;;16.73;13.63;;;8.90;99.90;;;;;;5047274;28;20432;-85
2022/11/15 02:40:34;;;;;;;17.97;13.63;;;9.00;99.90;;;;;;5055997;28;20456;-85
2022/11/15 02:46:01;;;;;;;18.87;14.93;;;9.10;99.90;;;;;;5055740;28;20484;-86
2022/11/15 02:48:29;;;;;;;20.90;14.70;;;8.90;99.90;;;;;;5059851;28;20440;-85
2022/11/15 02:50:57;;;;;;;18.50;12.77;;;8.90;99.90;;;;;;5062072;28;20484;-85
2022/11/15 02:53:26;;;;;;;23.07;14.10;;;8.80;99.90;;;;;;5056937;28;20433;-85
2022/11/15 02:55:55;;;;;;;16.80;14.00;;;8.80;99.90;;;;;;5056236;28;20546;-86
2022/11/15 02:58:43;;;;;;;14.97;13.33;;;8.70;99.90;;;;;;5053573;28;20441;-85
2022/11/15 03:01:20;;;;;;;18.50;13.30;;;8.80;99.90;;;;;;5062444;28;20460;-85
2022/11/15 03:04:00;;;;;;;18.17;13.93;;;8.80;99.90;;;;;;5066303;28;20464;-85
2022/11/15 03:06:37;;;;;;;18.03;12.33;;;8.80;99.90;;;;;;5055457;28;20472;-85
2022/11/15 03:09:08;;;;;;;20.17;13.93;;;8.80;99.90;;;;;;5053465;28;20436;-83
2022/11/15 03:11:40;;;;;;;17.07;13.93;;;8.90;99.90;;;;;;5055205;28;20491;-85
2022/11/15 03:14:15;;;;;;;21.37;13.90;;;8.80;99.90;;;;;;5055784;28;20443;-84
2022/11/15 03:16:48;;;;;;;18.70;14.13;;;8.80;99.90;;;;;;5056213;28;20444;-84
2022/11/15 03:19:20;;;;;;;19.80;14.10;;;8.70;99.90;;;;;;5054245;28;20448;-83
2022/11/15 03:21:48;;;;;;;21.73;14.40;;;8.60;99.90;;;;;;5055674;28;20996;-86
2022/11/15 03:24:18;;;;;;;23.73;16.07;;;8.60;99.90;;;;;;5054745;28;20475;-86
2022/11/15 03:26:48;;;;;;;19.80;14.60;;;8.50;99.90;;;;;;5054950;28;20448;-85
2022/11/15 03:29:19;;;;;;;19.97;14.97;;;8.50;99.90;;;;;;5058424;28;20451;-86
2022/11/15 03:31:52;;;;;;;14.80;13.20;;;8.50;99.90;;;;;;5076445;28;20453;-85
2022/11/15 03:34:27;;;;;;;15.60;13.07;;;8.50;99.90;;;;;;5075479;28;20443;-86
2022/11/15 03:36:54;;;;;;;15.83;12.70;;;8.50;99.90;;;;;;5069529;28;20427;-85
2022/11/15 03:39:22;;;;;;;18.77;13.87;;;8.50;99.90;;;;;;5079247;28;20432;-85
2022/11/15 03:41:53;;;;;;;14.67;12.33;;;8.50;99.90;;;;;;5076680;28;20453;-85
2022/11/15 03:44:32;;;;;;;14.87;12.13;;;8.50;99.90;;;;;;5058687;28;20495;-86
2022/11/15 03:47:07;;;;;;;13.53;12.13;;;8.50;99.90;;;;;;5056385;28;20437;-86
2022/11/15 03:49:35;;;;;;;18.10;13.07;;;8.50;99.90;;;;;;5054799;28;20444;-85
2022/11/15 03:52:04;;;;;;;17.13;13.37;;;8.40;99.90;;;;;;5055293;28;20780;-86
2022/11/15 03:54:31;;;;;;;18.33;13.40;;;8.40;99.90;;;;;;5056407;28;20437;-85
2022/11/15 03:56:58;;;;;;;13.10;11.63;;;8.50;99.90;;;;;;5069896;28;20425;-85
2022/11/15 03:59:25;;;;;;;14.77;11.53;;;8.40;99.90;;;;;;5056135;28;20453;-85
2022/11/15 04:01:51;;;;;;;13.73;11.07;;;8.40;99.90;;;;;;5053330;28;20453;-85
2022/11/15 04:04:19;;;;;;;14.77;10.83;;;8.40;99.90;;;;;;5054999;28;20472;-86
2022/11/15 04:06:46;;;;;;;14.93;11.70;;;8.40;99.90;;;;;;5054858;28;20437;-86
2022/11/15 04:09:13;;;;;;;12.37;11.17;;;8.40;99.90;;;;;;5055351;28;20445;-85
2022/11/15 04:11:40;;;;;;;13.40;12.00;;;8.50;99.90;;;;;;5057086;28;20474;-85
2022/11/15 04:14:07;;;;;;;13.27;11.23;;;8.50;99.90;;;;;;5055907;28;20437;-85
2022/11/15 04:16:33;;;;;;;17.80;11.40;;;8.60;99.90;;;;;;5069428;28;20431;-85
2022/11/15 04:24:32;;;;;;;16.47;13.07;;;8.50;99.90;;;;;;5052864;28;20483;-83
2022/11/15 04:26:59;;;;;;;16.83;12.60;;;8.50;99.90;;;;;;5053523;28;20472;-84
2022/11/15 04:29:35;;;;;;;14.53;12.90;;;8.40;99.90;;;;;;5061176;28;21027;-83
2022/11/15 04:32:02;;;;;;;14.20;12.57;;;8.40;99.90;;;;;;5067443;28;20467;-83
2022/11/15 04:34:29;;;;;;;18.10;12.57;;;8.40;99.90;;;;;;5060912;28;20448;-84
2022/11/15 04:37:12;;;;;;;18.10;12.57;;;8.40;99.90;;;;;;5055237;28;20440;-86
2022/11/15 04:39:39;;;;;;;18.63;14.40;;;8.40;99.90;;;;;;5054882;28;20979;-86
2022/11/15 04:42:07;;;;;;;15.67;13.80;;;8.40;99.90;;;;;;5059067;28;20445;-85
2022/11/15 04:44:33;;;;;;;13.87;12.47;;;8.30;99.90;;;;;;5067994;28;20472;-85
2022/11/15 04:47:00;;;;;;;17.30;13.10;;;8.40;99.90;;;;;;5066186;28;20416;-85
2022/11/15 04:49:27;;;;;;;16.57;13.17;;;8.40;99.90;;;;;;5073160;28;20437;-86
2022/11/15 04:51:54;;;;;;;19.60;13.67;;;8.30;99.90;;;;;;5062789;28;20461;-86
2022/11/15 04:54:22;;;;;;;16.80;12.93;;;8.30;99.90;;;;;;5058237;28;20437;-84
2022/11/15 04:56:48;;;;;;;18.13;14.13;;;8.30;99.90;;;;;;5054488;28;20444;-87
2022/11/15 04:59:15;;;;;;;13.93;12.23;;;8.30;99.90;;;;;;5060544;28;20437;-85
2022/11/15 05:01:42;;;;;;;19.70;13.70;;;8.20;99.90;;;;;;5058830;28;20465;-85
2022/11/15 05:04:20;;;;;;;16.60;11.70;;;8.20;99.90;;;;;;5067920;28;20465;-84
2022/11/15 05:06:48;;;;;;;16.90;13.37;;;8.20;99.90;;;;;;5053086;28;20425;-84
2022/11/15 05:09:15;;;;;;;15.60;12.67;;;8.30;99.90;;;;;;5055809;28;20441;-86
2022/11/15 05:11:43;;;;;;;15.00;12.97;;;8.40;99.90;;;;;;5057088;28;20469;-83
2022/11/15 05:14:10;;;;;;;16.50;13.17;;;8.40;99.90;;;;;;5055711;28;20444;-86
2022/11/15 05:16:37;;;;;;;18.40;14.43;;;8.40;99.90;;;;;;5057844;28;20453;-83
2022/11/15 05:19:04;;;;;;;14.53;12.50;;;8.40;99.90;;;;;;5060920;28;20437;-85
2022/11/15 05:21:32;;;;;;;19.20;14.90;;;8.40;99.90;;;;;;5057178;28;20467;-84
2022/11/15 05:23:58;;;;;;;19.60;14.50;;;8.40;99.90;;;;;;5082721;22;20494;-86
2022/11/15 05:26:25;;;;;;;15.33;13.83;;;8.40;99.90;;;;;;5091674;28;20432;-85
2022/11/15 05:28:59;;;;;;;17.70;13.03;;;8.30;99.90;;;;;;5099955;28;20508;-86
2022/11/15 05:31:34;;;;;;;18.97;14.20;;;8.20;99.90;;;;;;5121522;28;20494;-85
2022/11/15 05:34:04;;;;;;;17.33;13.17;;;8.10;99.90;;;;;;5130424;27;20520;-84
2022/11/15 05:36:36;;;;;;;15.20;12.90;;;8.10;99.90;;;;;;5134118;28;20441;-85
2022/11/15 05:39:05;;;;;;;14.80;13.30;;;8.10;99.90;;;;;;5122731;28;20449;-85
2022/11/15 05:41:34;;;;;;;15.50;13.40;;;8.20;99.90;;;;;;5109013;28;20943;-84
2022/11/15 05:44:06;;;;;;;15.20;12.03;;;8.30;99.90;;;;;;5098025;28;20485;-85
2022/11/15 05:46:34;;;;;;;17.50;13.03;;;8.30;99.90;;;;;;5092366;28;20447;-85
2022/11/15 05:49:01;;;;;;;16.40;13.17;;;8.30;99.90;;;;;;5091982;28;20446;-85
2022/11/15 05:51:30;;;;;;;20.20;13.03;;;8.30;99.90;;;;;;5090702;28;20435;-85
2022/11/15 05:53:59;;;;;;;17.90;12.23;;;8.30;99.90;;;;;;5089222;28;20793;-85
2022/11/15 05:56:26;;;;;;;15.10;12.53;;;8.40;99.90;;;;;;5089173;28;20763;-85
2022/11/15 05:58:54;;;;;;;14.80;11.93;;;8.40;99.90;;;;;;5098393;28;20588;-86
2022/11/15 06:01:22;;;;;;;19.63;13.10;;;8.30;99.90;;;;;;5107953;28;20445;-85
2022/11/15 06:03:49;;;;;;;12.70;10.57;;;8.30;99.90;;;;;;5096179;28;20481;-85
2022/11/15 06:06:15;;;;;;;16.10;10.50;;;8.40;99.90;;;;;;5087634;28;20445;-85
2022/11/15 06:08:42;;;;;;;15.97;11.40;;;8.50;99.90;;;;;;5090230;28;20863;-85
2022/11/15 06:11:09;;;;;;;13.60;11.27;;;8.50;99.90;;;;;;5086770;28;20465;-85
2022/11/15 06:13:36;;;;;;;12.50;9.80;;;8.50;99.90;;;;;;5079742;28;20990;-85
2022/11/15 06:16:03;;;;;;;12.60;9.97;;;8.50;99.90;;;;;;5090535;28;20450;-85
2022/11/15 06:18:33;;;;;;;15.50;10.50;;;8.60;99.90;;;;;;5091769;28;20443;-86
2022/11/15 06:21:00;;;;;;;11.40;10.20;;;8.60;99.90;;;;;;5078981;28;20435;-86
2022/11/15 06:23:27;;;;;;;19.60;12.00;;;8.60;99.90;;;;;;5099809;28;20468;-85
2022/11/15 06:25:54;;;;;;;15.70;11.70;;;8.60;99.90;;;;;;5109421;28;20460;-85
2022/11/15 06:28:21;;;;;;;14.53;11.33;;;8.60;99.90;;;;;;5099617;28;21223;-85
2022/11/15 06:30:47;;;;;;;12.13;10.07;;;8.60;99.90;;;;;;5087188;28;20450;-87
2022/11/15 06:33:17;;;;;;;13.40;11.67;;;8.60;99.90;;;;;;5111965;28;20499;-87
2022/11/15 06:35:45;;;;;;;18.83;13.80;;;8.60;99.90;;;;;;5112906;28;20418;-87
2022/11/15 06:38:12;;;;;;;13.77;11.53;;;8.50;99.90;;;;;;5112347;28;20443;-87
2022/11/15 06:40:40;;;;;;;15.83;12.37;;;8.50;99.90;;;;;;5101658;28;20436;-87
2022/11/15 06:43:08;;;;;;;16.10;12.33;;;8.60;99.90;;;;;;5103080;28;20489;-86
2022/11/15 06:45:34;;;;;;;16.13;13.87;;;8.60;99.90;;;;;;5085967;28;22177;-86
2022/11/15 06:48:01;;;;;;;18.73;13.20;;;8.60;99.90;;;;;;5083205;28;20435;-87
2022/11/15 06:50:28;;;;;;;17.87;13.40;;;8.60;99.90;;;;;;5080231;28;21097;-87
2022/11/15 06:53:00;;;;;;;15.67;13.07;;;8.60;99.90;;;;;;5080438;28;20440;-87
2022/11/15 06:55:27;;;;;;;16.43;12.97;;;8.60;99.90;;;;;;5083812;28;20450;-87
2022/11/15 06:57:54;;;;;;;18.73;12.13;;;8.70;99.90;;;;;;5101516;28;20498;-87
2022/11/15 07:00:23;;;;;;;19.20;12.53;;;8.60;99.90;;;;;;5112720;28;20487;-88
2022/11/15 07:02:49;;;;;;;16.30;12.40;;;8.60;99.90;;;;;;5107468;28;20432;-87
2022/11/15 07:05:16;;;;;;;13.50;10.43;;;8.70;99.90;;;;;;5078459;28;20995;-86
2022/11/15 07:07:43;;;;;;;15.83;11.07;;;8.70;99.90;;;;;;5082140;28;20446;-87
2022/11/15 07:10:11;;;;;;;16.73;11.77;;;8.80;99.90;;;;;;5081735;28;20462;-85
2022/11/15 07:12:51;;;;;;;16.37;12.90;;;8.80;99.90;;;;;;5079934;28;20450;-86
2022/11/15 07:15:22;;;;;;;15.10;12.20;;;8.80;99.90;;;;;;5089570;28;20463;-86
2022/11/15 07:17:49;;;;;;;19.70;12.30;;;8.90;99.90;;;;;;5082640;28;20447;-86
2022/11/15 07:20:17;;;;;;;19.33;11.10;;;8.90;99.90;;;;;;5092656;28;20435;-86
2022/11/15 07:22:45;;;;;;;17.40;11.30;;;8.90;99.90;;;;;;5095726;28;20431;-86
2022/11/15 07:25:13;;;;;;;19.43;14.67;;;9.10;99.90;;;;;;5115789;28;20500;-86
2022/11/15 07:27:45;;;;;;;16.50;11.90;;;9.10;99.90;;;;;;5102257;28;20542;-85
2022/11/15 07:30:15;;;;;;;14.43;10.77;;;9.30;99.90;;;;;;5090940;28;20443;-85
2022/11/15 07:32:42;;;;;;;15.23;11.63;;;9.40;99.90;;;;;;5093313;28;20455;-85
2022/11/15 07:35:09;;;;;;;16.63;12.63;;;9.50;99.90;;;;;;5092909;28;20466;-85
2022/11/15 07:37:36;;;;;;;12.40;10.73;;;9.60;99.90;;;;;;5089684;28;20958;-85
2022/11/15 07:40:03;;;;;;;13.83;10.23;;;9.70;99.90;;;;;;5091307;28;20952;-86
2022/11/15 07:45:17;;;;;;;14.57;10.80;;;10.00;99.90;;;;;;5092464;28;20577;-85
2022/11/15 07:47:46;;;;;;;14.73;12.40;;;10.10;99.90;;;;;;5093783;28;20525;-86
2022/11/15 07:50:13;;;;;;;17.53;11.50;;;10.40;99.90;;;;;;5115481;28;20447;-85
2022/11/15 07:52:40;;;;;;;12.27;10.97;;;10.60;99.90;;;;;;5105384;28;20457;-86
2022/11/15 07:55:08;;;;;;;13.97;10.57;;;10.90;99.90;;;;;;5092542;28;20474;-85
2022/11/15 07:57:36;;;;;;;9.40;8.47;;;11.10;99.90;;;;;;5092692;28;20451;-85
2022/11/15 08:00:03;;;;;;;13.63;9.20;;;11.40;99.90;;;;;;5092505;28;20447;-85
2022/11/15 08:02:30;;;;;;;11.83;9.63;;;11.50;99.90;;;;;;5092842;28;20443;-86
2022/11/15 08:04:57;;;;;;;10.27;9.13;;;11.50;99.90;;;;;;5093241;28;20478;-86
2022/11/15 08:07:24;;;;;;;12.50;8.53;;;11.50;99.90;;;;;;5093614;28;20458;-87
2022/11/15 08:09:50;;;;;;;11.90;8.83;;;11.50;99.90;;;;;;5091864;28;20451;-86
2022/11/15 08:12:17;;;;;;;10.37;8.60;;;11.40;99.90;;;;;;5096218;28;20435;-86
2022/11/15 08:14:45;;;;;;;11.30;10.13;;;11.60;99.90;;;;;;5111417;28;20457;-86
2022/11/15 08:17:12;;;;;;;11.17;8.63;;;11.80;99.90;;;;;;5117307;27;20433;-85
2022/11/15 08:19:39;;;;;;;10.10;8.33;;;12.10;99.90;;;;;;5110660;27;20467;-86
2022/11/15 08:22:05;;;;;;;12.10;9.40;;;12.20;99.90;;;;;;5104026;28;20538;-90
2022/11/15 08:24:32;;;;;;;13.10;9.40;;;12.40;99.90;;;;;;5094936;28;20881;-85
2022/11/15 08:26:59;;;;;;;13.27;9.70;;;12.40;99.90;;;;;;5096877;28;20443;-84
2022/11/15 08:29:26;;;;;;;10.53;9.27;;;12.20;99.90;;;;;;5099593;28;20439;-84
2022/11/15 08:31:55;;;;;;;15.10;9.17;;;12.30;99.90;;;;;;5102266;28;20443;-84
2022/11/15 08:34:22;;;;;;;13.23;9.00;;;12.40;99.90;;;;;;5101885;28;20470;-84
2022/11/15 08:36:49;;;;;;;12.87;10.00;;;12.60;99.90;;;;;;5096566;28;20927;-84
2022/11/15 08:39:15;;;;;;;14.00;9.57;;;12.90;99.90;;;;;;5117395;28;20562;-84
2022/11/15 08:41:42;;;;;;;15.27;10.33;;;13.30;99.90;;;;;;5113587;28;20435;-84
2022/11/15 08:44:09;;;;;;;15.37;9.67;;;13.60;99.90;;;;;;5117911;28;20458;-84
2022/11/15 08:46:36;;;;;;;14.00;8.67;;;13.80;99.90;;;;;;5119908;28;20526;-84
2022/11/15 08:49:04;;;;;;;13.17;9.97;;;14.20;99.90;;;;;;5102140;28;20447;-83
2022/11/15 08:51:30;;;;;;;14.07;9.00;;;14.30;99.90;;;;;;5103348;28;20442;-86
2022/11/15 08:53:57;;;;;;;12.03;9.60;;;14.40;99.90;;;;;;5099546;28;20458;-85
2022/11/15 08:56:24;;;;;;;11.97;9.30;;;14.20;99.90;;;;;;5092112;28;20446;-86
2022/11/15 08:58:51;;;;;;;12.07;9.00;;;14.30;99.90;;;;;;5100512;28;20439;-85
2022/11/15 09:01:19;;;;;;;11.23;8.50;;;14.10;99.90;;;;;;5118139;28;20790;-85
2022/11/15 09:03:46;;;;;;;10.17;9.17;;;14.20;99.90;;;;;;5118071;28;20454;-85
2022/11/15 09:06:14;;;;;;;11.27;7.80;;;14.60;99.90;;;;;;5110035;28;20571;-85
2022/11/15 09:08:41;;;;;;;11.37;8.30;;;15.40;99.90;;;;;;5093005;28;20959;-85
2022/11/15 09:11:10;;;;;;;8.13;6.73;;;15.80;99.90;;;;;;5095445;28;20435;-85
2022/11/15 09:13:37;;;;;;;6.97;6.27;;;16.20;99.90;;;;;;5094971;28;20538;-85
2022/11/15 09:16:05;;;;;;;8.70;7.50;;;16.30;99.40;;;;;;5102497;28;20430;-86
2022/11/15 09:18:32;;;;;;;10.27;7.70;;;16.50;98.60;;;;;;5117992;28;20486;-85
2022/11/15 09:20:59;;;;;;;7.47;6.73;;;16.50;98.40;;;;;;5117820;28;20424;-85
2022/11/15 09:23:28;;;;;;;10.73;8.60;;;16.20;97.80;;;;;;5119832;28;20447;-85
2022/11/15 09:26:00;;;;;;;13.40;8.53;;;16.00;98.00;;;;;;5108495;28;20841;-86
2022/11/15 09:28:27;;;;;;;9.67;8.37;;;16.40;98.80;;;;;;5095162;28;20433;-86
2022/11/15 09:30:57;;;;;;;9.53;8.47;;;16.40;97.90;;;;;;5094616;28;20448;-86
2022/11/15 09:33:24;;;;;;;12.10;8.60;;;16.70;98.00;;;;;;5117389;28;20923;-86
2022/11/15 09:35:51;;;;;;;10.23;9.23;;;16.60;97.30;;;;;;5102284;28;20439;-86
2022/11/15 09:38:17;;;;;;;9.20;8.23;;;16.80;97.80;;;;;;5093666;28;20452;-86
2022/11/15 09:40:53;;;;;;;9.80;8.80;;;17.10;97.00;;;;;;5095146;28;20439;-86
2022/11/15 09:43:36;;;;;;;8.10;6.73;;;17.70;96.40;;;;;;5105135;28;20466;-85
2022/11/15 09:46:13;;;;;;;13.63;8.40;;;18.00;95.30;;;;;;5097901;28;20475;-86
2022/11/15 09:48:56;;;;;;;9.63;8.43;;;18.20;94.70;;;;;;5090285;28;20533;-86
2022/11/15 09:51:29;;;;;;;9.87;7.93;;;18.20;94.60;;;;;;5091781;28;20544;-86
2022/11/15 09:54:05;;;;;;;9.33;7.63;;;18.00;94.40;;;;;;5095094;28;20470;-86
2022/11/15 09:56:36;;;;;;;10.90;8.17;;;18.00;94.90;;;;;;5095368;28;20450;-86
2022/11/15 09:59:19;;;;;;;7.50;6.70;;;18.60;93.80;;;;;;5094739;28;20442;-85
2022/11/15 10:01:54;;;;;;;10.60;7.40;;;19.20;93.00;;;;;;5095729;28;20431;-86
2022/11/15 10:04:22;;;;;;;9.80;7.30;;;20.10;91.90;;;;;;5095950;28;20485;-86
2022/11/15 10:06:55;;;;;;;10.90;7.70;;;20.60;90.10;;;;;;5097970;28;20936;-85
2022/11/15 10:09:27;;;;;;;9.77;6.90;;;21.00;89.40;;;;;;5096870;28;20537;-86
2022/11/15 10:11:55;;;;;;;8.37;7.23;;;20.50;88.30;;;;;;5095727;28;20530;-86
2022/11/15 10:14:25;;;;;;;14.47;7.17;;;19.30;90.00;;;;;;5096063;28;20827;-86
2022/11/15 10:17:14;;;;;;;10.40;7.63;;;18.40;91.00;;;;;;5096502;28;20466;-86
2022/11/15 10:19:50;;;;;;;8.90;7.60;;;17.80;91.80;;;;;;5106007;28;20453;-85
2022/11/15 10:22:26;;;;;;;10.07;7.10;;;17.20;93.30;;;;;;5116668;28;20491;-85
2022/11/15 10:25:11;;;;;;;10.00;7.40;;;16.60;93.60;;;;;;5103228;28;20490;-85
2022/11/15 10:27:40;;;;;;;9.80;7.20;;;16.40;94.70;;;;;;5116533;28;20443;-85
2022/11/15 10:30:12;;;;;;;9.47;7.80;;;16.10;95.60;;;;;;5120008;28;20498;-85
2022/11/15 10:32:41;;;;;;;9.73;7.70;;;15.90;96.20;;;;;;5103702;28;20439;-86
2022/11/15 10:35:19;;;;;;;8.53;6.83;;;15.90;96.90;;;;;;5103900;28;20985;-85
2022/11/15 10:37:46;;;;;;;10.33;7.23;;;16.00;96.50;;;;;;5104887;28;20951;-86
2022/11/15 10:40:18;;;;;;;10.13;7.50;;;15.80;96.40;;;;;;5096667;28;21016;-86
2022/11/15 10:42:47;;;;;;;10.07;6.20;;;15.80;97.00;;;;;;5113973;28;20799;-85
2022/11/15 10:45:33;;;;;;;13.00;7.17;;;16.00;97.00;;;;;;5107738;28;20864;-86
2022/11/15 10:48:23;;;;;;;11.80;9.47;;;16.00;96.70;;;;;;5096520;28;20439;-86
2022/11/15 10:50:52;;;;;;;8.77;5.73;;;16.10;97.00;;;;;;5094086;28;20454;-86
2022/11/15 10:53:26;;;;;;;8.97;5.83;;;16.00;96.90;;;;;;5094201;28;20521;-85
2022/11/15 10:55:56;;;;;;;9.00;7.03;;;16.10;96.80;;;;;;5094472;28;20962;-86
2022/11/15 10:58:35;;;;;;;7.77;5.27;;;16.00;96.80;;;;;;5094074;28;20530;-86
2022/11/15 11:01:14;;;;;;;9.77;6.50;;;16.00;96.70;;;;;;5093198;28;20451;-85
2022/11/15 11:03:43;;;;;;;9.30;7.77;;;15.90;97.00;;;;;;5093427;28;20518;-86
2022/11/15 11:06:12;;;;;;;6.97;5.83;;;15.80;97.60;;;;;;5115123;28;20485;-86
2022/11/15 11:08:40;;;;;;;10.47;7.07;;;15.80;97.10;;;;;;5115021;28;20451;-86
2022/11/15 11:11:08;;;;;;;7.67;6.17;;;15.70;97.20;;;;;;5117231;28;20456;-86
2022/11/15 11:13:39;;;;;;;7.50;6.23;;;15.60;97.40;;;;;;5109155;28;20969;-86
2022/11/15 11:16:35;;;;;;;8.20;6.17;;;15.60;97.50;;;;;;5098979;28;20457;-85
2022/11/15 11:19:11;;;;;;;9.80;6.70;;;15.60;97.30;;;;;;5100708;28;20863;-84
2022/11/15 11:21:48;;;;;;;7.67;6.80;;;15.50;97.40;;;;;;5104466;28;20442;-86
2022/11/15 11:24:25;;;;;;;10.53;6.47;;;15.50;97.90;;;;;;5125945;22;20537;-86
2022/11/15 11:27:06;;;;;;;10.00;6.53;;;15.70;98.10;;;;;;5081796;28;20440;-85
2022/11/15 11:29:50;;;;;;;12.77;6.07;;;15.70;97.80;;;;;;5081314;28;20455;-84
2022/11/15 11:32:32;;;;;;;12.93;5.50;;;15.70;97.40;;;;;;5080435;28;20450;-85
2022/11/15 11:35:06;;;;;;;8.87;6.50;;;15.90;97.40;;;;;;5080831;28;20507;-85
2022/11/15 11:37:40;;;;;;;10.00;6.40;;;16.10;97.40;;;;;;5081423;28;20457;-85
2022/11/15 11:40:20;;;;;;;9.30;6.00;;;16.30;97.20;;;;;;5081123;28;20440;-85
2022/11/15 11:42:58;;;;;;;10.97;6.20;;;16.50;96.90;;;;;;5079614;28;20543;-84
2022/11/15 11:46:11;;;;;;;7.67;6.03;;;16.70;96.90;;;;;;5085798;28;20464;-85
2022/11/15 11:48:42;;;;;;;8.97;6.30;;;16.70;96.10;;;;;;5050693;28;20459;-84
2022/11/15 11:51:16;;;;;;;10.67;6.77;;;16.60;96.20;;;;;;5091193;28;20459;-85
2022/11/15 11:53:51;;;;;;;7.83;4.87;;;16.50;96.00;;;;;;5082809;28;20505;-86
2022/11/15 11:56:25;;;;;;;9.67;5.10;;;16.60;96.30;;;;;;5086350;28;20519;-84
2022/11/15 11:58:55;;;;;;;6.30;4.97;;;16.60;96.40;;;;;;5083530;28;20451;-87
2022/11/15 12:01:25;;;;;;;8.47;5.90;;;16.60;96.70;;;;;;5082331;28;20446;-85
2022/11/15 12:03:58;;;;;;;9.03;5.40;;;16.60;96.30;;;;;;5083221;28;20441;-85
2022/11/15 12:06:32;;;;;;;6.53;5.40;;;16.60;96.70;;;;;;5084571;28;20501;-87
2022/11/15 12:09:02;;;;;;;8.67;6.10;;;16.60;96.80;;;;;;5080490;28;20517;-85
2022/11/15 12:11:36;;;;;;;7.33;5.17;;;16.80;96.30;;;;;;5083382;28;20446;-88
2022/11/15 12:14:10;;;;;;;7.47;6.10;;;16.90;95.90;;;;;;5079243;28;20447;-86
2022/11/15 12:16:42;;;;;;;9.53;6.20;;;17.40;95.70;;;;;;5080328;28;20492;-85
2022/11/15 12:19:09;;;;;;;8.80;6.80;;;17.50;94.90;;;;;;5080483;28;20447;-85
2022/11/15 12:21:43;;;;;;;9.67;6.57;;;17.50;95.10;;;;;;5079355;28;20440;-84
2022/11/15 12:24:16;;;;;;;10.67;7.70;;;17.40;95.00;;;;;;5080077;28;20454;-85
2022/11/15 12:26:49;;;;;;;12.03;6.93;;;17.10;95.20;;;;;;5083652;28;20446;-87
2022/11/15 12:29:21;;;;;;;11.47;8.30;;;16.90;95.70;;;;;;5084873;28;20828;-85
2022/11/15 12:31:55;;;;;;;12.53;8.03;;;16.70;96.00;;;;;;5085945;28;20451;-86
2022/11/15 12:34:45;;;;;;;12.30;7.83;;;16.50;96.60;;;;;;5079046;28;20499;-86
2022/11/15 12:37:49;;;;;;;12.50;7.80;;;16.40;97.30;;;;;;5083770;28;21010;-86
2022/11/15 12:40:28;;;;;;;10.97;7.50;;;16.20;97.40;;;;;;5084530;28;20517;-85
2022/11/15 12:43:04;;;;;;;13.60;8.20;;;16.00;97.70;;;;;;5082018;28;20486;-84
2022/11/15 12:45:33;;;;;;;10.27;7.20;;;16.00;97.70;;;;;;5082464;28;20553;-84
2022/11/15 12:48:38;;;;;;;8.33;6.67;;;16.00;97.90;;;;;;5081891;28;20451;-85
2022/11/15 12:51:06;;;;;;;8.70;5.90;;;15.90;97.70;;;;;;5081664;28;20948;-87
2022/11/15 12:53:34;;;;;;;15.63;7.47;;;15.90;98.00;;;;;;5080320;28;20456;-85
2022/11/15 12:56:20;;;;;;;14.00;6.73;;;15.90;98.00;;;;;;5081667;28;20494;-86
2022/11/15 12:58:49;;;;;;;7.27;6.20;;;15.90;98.20;;;;;;5085229;28;20518;-86
2022/11/15 13:01:50;;;;;;;9.33;6.43;;;15.90;98.10;;;;;;5089157;28;20510;-85
2022/11/15 13:04:26;;;;;;;12.30;6.37;;;16.00;98.40;;;;;;5083507;28;20461;-86
2022/11/15 13:06:55;;;;;;;8.60;6.30;;;15.90;98.60;;;;;;5091842;28;20439;-86
2022/11/15 13:09:54;;;;;;;19.20;6.97;;;15.90;98.70;;;;;;5085876;28;20451;-85